Time;durP1;ratioP1;P1;durP2;ratioP2;P2;SDS_P1;SDS_P2;PMS_P1;PMS_P2;Temp;Humidity;BMP_temperature;BMP_pressure;BME280_temperature;BME280_humidity;BME280_pressure;Samples;Min_cycle;Max_cycle;Signal;HPM_P1;HPM_P2
2023/09/22 00:00:10;;;;;;;;;0.75;0.00;;;;;21.90;100.00;99290.19;4919000;28;45828;-75
2023/09/22 00:02:35;;;;;;;;;1.00;0.00;;;;;21.78;100.00;99298.03;4918638;28;45473;-74
2023/09/22 00:05:01;;;;;;;;;0.00;0.00;;;;;21.70;100.00;99294.88;4917642;28;45438;-75
2023/09/22 00:07:27;;;;;;;;;2.50;0.00;;;;;21.62;100.00;99297.13;4917634;28;45470;-75
2023/09/22 00:09:52;;;;;;;;;0.00;0.00;;;;;21.60;100.00;99293.63;4917951;28;45406;-75
2023/09/22 00:12:18;;;;;;;;;1.00;1.00;;;;;21.53;100.00;99286.78;4883194;28;45527;-74
2023/09/22 00:14:45;;;;;;;;;1.50;1.50;;;;;21.61;100.00;99294.50;4894435;29;47673;-74
2023/09/22 00:17:10;;;;;;;;;0.00;0.00;;;;;21.49;100.00;99290.63;4879963;29;45452;-74
2023/09/22 00:19:36;;;;;;;;;0.00;0.00;;;;;21.42;100.00;99292.75;4880346;29;45547;-75
2023/09/22 00:22:03;;;;;;;;;0.00;0.00;;;;;21.46;100.00;99286.25;4880536;29;45368;-74
2023/09/22 00:24:28;;;;;;;;;2.75;0.00;;;;;21.44;100.00;99285.47;4880463;29;45438;-75
2023/09/22 00:26:54;;;;;;;;;0.00;0.00;;;;;21.48;100.00;99286.19;4879229;29;45404;-74
2023/09/22 00:29:19;;;;;;;;;0.00;0.00;;;;;21.41;100.00;99288.31;4879080;29;45626;-74
2023/09/22 00:31:44;;;;;;;;;0.75;0.75;;;;;21.42;100.00;99294.59;4879182;29;45500;-75
2023/09/22 00:34:10;;;;;;;;;0.00;0.00;;;;;21.36;100.00;99288.53;4894815;29;47202;-75
2023/09/22 00:36:35;;;;;;;;;0.00;0.00;;;;;21.37;100.00;99298.44;4879219;29;45542;-75
2023/09/22 00:39:03;;;;;;;;;0.00;0.00;;;;;21.37;100.00;99294.84;4878789;29;45369;-74
2023/09/22 00:41:29;;;;;;;;;0.00;0.00;;;;;21.38;100.00;99289.34;4878814;29;45365;-74
2023/09/22 00:43:54;;;;;;;;;0.00;0.00;;;;;21.44;100.00;99287.31;4879613;29;46136;-74
2023/09/22 00:46:23;;;;;;;;;0.00;0.00;;;;;21.84;100.00;99280.59;4879422;29;45575;-71
2023/09/22 00:48:50;;;;;;;;;0.00;0.00;;;;;21.73;100.00;99293.81;4877795;29;45891;-73
2023/09/22 00:51:19;;;;;;;;;0.25;0.00;;;;;21.54;100.00;99291.25;4878684;29;45411;-72
2023/09/22 00:53:46;;;;;;;;;0.00;0.00;;;;;21.78;100.00;99287.19;4878975;29;46435;-72
2023/09/22 00:56:12;;;;;;;;;0.00;0.00;;;;;21.58;100.00;99285.59;4877428;29;45462;-73
2023/09/22 00:58:38;;;;;;;;;0.00;0.00;;;;;21.47;100.00;99281.72;4893534;29;45421;-73
2023/09/22 01:01:04;;;;;;;;;0.00;0.00;;;;;21.38;100.00;99283.06;4882142;29;45408;-74
2023/09/22 01:03:30;;;;;;;;;0.00;0.00;;;;;21.55;100.00;99284.88;4883207;29;44939;-74
2023/09/22 01:05:55;;;;;;;;;0.00;0.00;;;;;21.27;100.00;99296.28;4882961;29;45798;-74
2023/09/22 01:08:21;;;;;;;;;0.00;0.00;;;;;21.22;100.00;99291.13;4882437;29;45744;-75
2023/09/22 01:10:46;;;;;;;;;0.00;0.00;;;;;21.25;100.00;99290.97;4882605;29;45371;-74
2023/09/22 01:13:12;;;;;;;;;0.75;0.00;;;;;21.29;100.00;99289.84;4883642;29;45306;-74
2023/09/22 01:15:42;;;;;;;;;1.00;0.00;;;;;21.51;100.00;99292.31;4883195;29;44788;-73
2023/09/22 01:18:10;;;;;;;;;0.00;0.00;;;;;21.36;100.00;99285.84;4883480;29;44757;-74
2023/09/22 01:20:45;;;;;;;;;2.75;1.00;;;;;21.83;100.00;99289.63;4883495;29;44943;-74
2023/09/22 01:23:14;;;;;;;;;0.00;0.00;;;;;21.67;100.00;99289.66;4898052;29;47049;-75
2023/09/22 01:25:41;;;;;;;;;0.00;0.00;;;;;21.42;100.00;99275.66;4884113;29;45048;-73
2023/09/22 01:28:07;;;;;;;;;0.00;0.00;;;;;21.36;100.00;99264.22;4899030;29;44807;-73
2023/09/22 01:30:33;;;;;;;;;0.00;0.00;;;;;21.30;100.00;99272.66;4902983;29;44906;-73
2023/09/22 01:33:03;;;;;;;;;0.25;0.00;;;;;21.54;100.00;99272.31;4887587;29;45618;-73
2023/09/22 01:35:33;;;;;;;;;0.00;0.00;;;;;21.18;100.00;99281.41;4887838;29;45434;-72
2023/09/22 01:38:19;;;;;;;;;0.00;0.00;;;;;21.74;100.00;99276.63;4888115;29;44753;-72
2023/09/22 01:40:45;;;;;;;;;0.00;0.00;;;;;21.30;100.00;99269.94;4887798;29;45426;-73
2023/09/22 01:43:11;;;;;;;;;0.50;0.50;;;;;21.30;100.00;99278.06;4887672;29;45080;-73
2023/09/22 01:45:37;;;;;;;;;1.00;1.00;;;;;21.27;100.00;99289.06;4888002;29;45371;-72
2023/09/22 01:48:04;;;;;;;;;12.33;12.33;;;;;21.23;100.00;99273.94;4887406;29;45339;-72
2023/09/22 01:50:34;;;;;;;;;0.25;0.25;;;;;21.52;100.00;99275.09;4903265;29;45081;-72
2023/09/22 01:52:59;;;;;;;;;0.00;0.00;;;;;21.12;100.00;99271.78;4887605;29;45059;-74
2023/09/22 01:55:25;;;;;;;;;0.00;0.00;;;;;21.23;100.00;99276.66;4901558;29;45277;-73
2023/09/22 01:57:50;;;;;;;;;0.00;0.00;;;;;21.19;100.00;99272.38;4888802;29;44818;-72
2023/09/22 02:00:18;;;;;;;;;1.00;0.00;;;;;21.21;100.00;99275.88;4888170;29;44809;-72
2023/09/22 02:02:45;;;;;;;;;0.25;0.00;;;;;21.12;100.00;99274.50;4901766;29;46980;-73
2023/09/22 02:05:17;;;;;;;;;0.00;0.00;;;;;21.05;100.00;99270.41;4902519;29;44803;-73
2023/09/22 02:07:42;;;;;;;;;0.00;0.00;;;;;21.03;100.00;99268.72;4887114;29;44876;-73
2023/09/22 02:10:10;;;;;;;;;1.25;0.00;;;;;21.14;100.00;99272.59;4888692;29;44793;-73
2023/09/22 02:12:38;;;;;;;;;0.75;0.00;;;;;21.31;100.00;99269.00;4887714;29;45283;-73
2023/09/22 02:15:07;;;;;;;;;1.00;0.00;;;;;21.03;100.00;99268.72;4886185;29;45419;-74
2023/09/22 02:17:33;;;;;;;;;0.00;0.00;;;;;20.83;100.00;99284.16;4888966;29;45390;-73
2023/09/22 02:19:58;;;;;;;;;0.00;0.00;;;;;20.85;100.00;99279.53;4902990;29;45169;-73
2023/09/22 02:22:24;;;;;;;;;0.00;0.00;;;;;20.87;100.00;99277.63;4888383;29;45106;-73
2023/09/22 02:24:49;;;;;;;;;0.00;0.00;;;;;20.78;100.00;99284.41;4887590;29;45186;-74
2023/09/22 02:27:15;;;;;;;;;2.50;1.00;;;;;20.79;100.00;99282.56;4903547;29;44917;-73
2023/09/22 02:29:40;;;;;;;;;2.50;0.00;;;;;20.74;100.00;99274.69;4886833;29;44954;-73
2023/09/22 02:32:05;;;;;;;;;2.00;0.50;;;;;20.67;100.00;99281.34;4888127;29;45071;-73
2023/09/22 02:34:33;;;;;;;;;0.75;0.50;;;;;20.71;100.00;99282.06;4887469;29;44835;-72
2023/09/22 02:36:59;;;;;;;;;0.00;0.00;;;;;20.82;100.00;99279.69;4888567;29;45433;-73
2023/09/22 02:39:24;;;;;;;;;0.00;0.00;;;;;20.73;100.00;99286.44;4887456;29;45252;-73
2023/09/22 02:41:49;;;;;;;;;0.00;0.00;;;;;20.56;100.00;99289.06;4887012;29;45287;-74
2023/09/22 02:44:15;;;;;;;;;0.25;0.25;;;;;20.32;100.00;99294.78;4901125;29;44948;-74
2023/09/22 02:46:41;;;;;;;;;0.50;0.00;;;;;20.28;100.00;99294.97;4886564;29;44816;-73
2023/09/22 02:49:07;;;;;;;;;1.50;0.00;;;;;20.19;100.00;99291.78;4902026;29;44887;-72
2023/09/22 02:51:33;;;;;;;;;0.00;0.00;;;;;20.18;100.00;99292.75;4901668;29;46690;-72
2023/09/22 02:53:59;;;;;;;;;0.00;0.00;;;;;20.31;100.00;99295.72;4901447;29;45395;-73
2023/09/22 02:56:24;;;;;;;;;1.75;0.50;;;;;20.12;100.00;99298.44;4901831;29;45405;-74
2023/09/22 02:58:50;;;;;;;;;1.00;1.00;;;;;20.12;100.00;99297.56;4901428;29;44941;-75
2023/09/22 03:01:15;;;;;;;;;0.00;0.00;;;;;20.20;100.00;99289.97;4886584;29;45152;-73
2023/09/22 03:03:44;;;;;;;;;0.00;0.00;;;;;20.31;100.00;99298.41;4886949;29;45451;-73
2023/09/22 03:06:11;;;;;;;;;0.00;0.00;;;;;20.07;100.00;99297.78;4888055;29;45756;-73
2023/09/22 03:08:37;;;;;;;;;1.00;1.00;;;;;20.05;100.00;99288.88;4901933;29;44828;-73
2023/09/22 03:11:02;;;;;;;;;2.50;0.00;;;;;19.96;100.00;99286.63;4887714;29;45409;-73
2023/09/22 03:13:28;;;;;;;;;0.00;0.00;;;;;19.93;100.00;99279.53;4888344;29;44894;-74
2023/09/22 03:15:53;;;;;;;;;0.00;0.00;;;;;20.01;100.00;99281.00;4887258;29;44865;-74
2023/09/22 03:18:19;;;;;;;;;0.00;0.00;;;;;19.88;100.00;99280.72;4889242;29;44716;-74
2023/09/22 03:20:45;;;;;;;;;0.75;0.75;;;;;19.87;100.00;99285.22;4901785;29;47556;-74
2023/09/22 03:23:10;;;;;;;;;0.00;0.00;;;;;19.85;100.00;99278.16;4901888;29;44810;-73
2023/09/22 03:25:36;;;;;;;;;0.00;0.00;;;;;19.93;100.00;99289.47;4887096;29;44852;-73
2023/09/22 03:28:02;;;;;;;;;0.67;0.67;;;;;19.88;100.00;99299.63;4902867;29;44892;-74
2023/09/22 03:30:27;;;;;;;;;0.75;0.75;;;;;19.86;100.00;99293.41;4901595;29;47044;-73
2023/09/22 03:32:53;;;;;;;;;0.50;0.50;;;;;19.93;100.00;99300.25;4900519;29;44818;-74
2023/09/22 03:35:19;;;;;;;;;0.00;0.00;;;;;19.95;100.00;99292.97;4887162;29;45118;-73
2023/09/22 03:37:45;;;;;;;;;0.00;0.00;;;;;20.05;100.00;99283.47;4886668;29;44877;-73
2023/09/22 03:40:20;;;;;;;;;2.00;0.00;;;;;19.97;100.00;99281.13;4886377;29;44996;-74
2023/09/22 03:42:46;;;;;;;;;1.25;1.00;;;;;20.01;100.00;99289.97;4900595;29;44991;-73
2023/09/22 03:45:11;;;;;;;;;0.50;0.00;;;;;20.03;100.00;99274.56;4901220;29;44873;-73
2023/09/22 03:47:45;;;;;;;;;0.00;0.00;;;;;20.23;100.00;99281.72;4886298;29;45332;-73
2023/09/22 03:50:10;;;;;;;;;0.00;0.00;;;;;20.08;100.00;99283.34;4884709;29;47324;-73
2023/09/22 03:52:36;;;;;;;;;1.00;1.00;;;;;20.02;100.00;99282.75;4884345;29;45478;-73
2023/09/22 03:55:02;;;;;;;;;0.00;0.00;;;;;20.08;100.00;99282.47;4888916;29;44759;-72
2023/09/22 03:57:28;;;;;;;;;0.00;0.00;;;;;20.03;100.00;99285.38;4887058;29;44952;-72
2023/09/22 03:59:53;;;;;;;;;0.00;0.00;;;;;19.99;100.00;99290.03;4885407;29;45169;-73
2023/09/22 04:02:20;;;;;;;;;3.50;2.00;;;;;19.91;100.00;99285.97;4900051;29;45516;-72
2023/09/22 04:04:46;;;;;;;;;0.00;0.00;;;;;19.88;100.00;99292.38;4900893;29;44891;-72
2023/09/22 04:07:11;;;;;;;;;2.75;1.00;;;;;19.82;100.00;99289.97;4886769;29;44688;-72
2023/09/22 04:09:37;;;;;;;;;3.00;1.00;;;;;19.87;100.00;99289.75;4885193;29;47032;-73
2023/09/22 04:12:02;;;;;;;;;0.33;0.00;;;;;19.82;100.00;99286.41;4901236;29;44789;-73
2023/09/22 04:14:27;;;;;;;;;1.25;1.00;;;;;19.83;100.00;99282.75;4885660;29;44757;-73
2023/09/22 04:16:53;;;;;;;;;1.00;0.75;;;;;20.13;100.00;99285.81;4885166;29;44880;-72
2023/09/22 04:19:18;;;;;;;;;0.67;0.00;;;;;19.89;100.00;99285.16;4885463;29;45283;-73
2023/09/22 04:21:46;;;;;;;;;1.67;0.00;;;;;19.88;100.00;99287.00;4899991;29;45156;-72
2023/09/22 04:24:12;;;;;;;;;2.00;2.00;;;;;19.89;100.00;99286.03;4885307;29;44917;-74
2023/09/22 04:26:44;;;;;;;;;3.00;1.00;;;;;19.96;100.00;99283.94;4885825;29;44846;-74
2023/09/22 04:29:10;;;;;;;;;1.00;1.00;;;;;19.81;100.00;99284.66;4885126;29;46831;-73
2023/09/22 04:31:35;;;;;;;;;1.67;1.00;;;;;19.10;100.00;99282.47;4886103;29;44958;-72
2023/09/22 04:34:01;;;;;;;;;0.00;0.00;;;;;18.99;100.00;99281.13;4899809;29;44937;-73
2023/09/22 04:36:26;;;;;;;;;3.00;2.00;;;;;19.01;100.00;99277.47;4902290;29;45421;-72
2023/09/22 04:38:52;;;;;;;;;2.67;1.00;;;;;18.89;100.00;99269.00;4885862;29;44911;-72
2023/09/22 04:41:25;;;;;;;;;2.00;2.00;;;;;18.91;100.00;99275.19;4885000;29;44840;-72
2023/09/22 04:43:53;;;;;;;;;2.00;2.00;;;;;19.04;100.00;99277.34;4885781;29;44953;-73
2023/09/22 04:46:22;;;;;;;;;2.00;1.00;;;;;18.81;100.00;99279.22;4899536;29;45360;-73
2023/09/22 04:48:47;;;;;;;;;3.00;1.33;;;;;18.79;100.00;99279.28;4900145;29;47086;-71
2023/09/22 04:51:14;;;;;;;;;2.00;2.00;;;;;18.86;100.00;99281.72;4884920;29;44961;-71
2023/09/22 04:53:41;;;;;;;;;2.00;2.00;;;;;18.89;100.00;99277.06;4885235;29;44937;-73
2023/09/22 04:56:07;;;;;;;;;3.50;2.50;;;;;18.76;100.00;99281.19;4899521;29;45400;-73
2023/09/22 04:58:33;;;;;;;;;1.67;1.67;;;;;19.11;100.00;99278.84;4887817;29;45464;-72
2023/09/22 05:01:01;;;;;;;;;2.67;2.67;;;;;18.76;100.00;99294.66;4887246;29;44861;-72
2023/09/22 05:03:28;;;;;;;;;1.25;1.25;;;;;18.85;100.00;99294.31;4905575;29;45352;-72
2023/09/22 05:05:54;;;;;;;;;2.00;2.00;;;;;18.74;100.00;99286.66;4891775;29;44801;-72
2023/09/22 05:08:21;;;;;;;;;2.67;2.33;;;;;18.69;100.00;99279.72;4891165;29;45382;-73
2023/09/22 05:10:47;;;;;;;;;4.00;2.67;;;;;18.64;100.00;99262.88;4905437;29;44905;-72
2023/09/22 05:13:14;;;;;;;;;4.33;3.00;;;;;18.59;100.00;99276.53;4891507;29;45341;-74
2023/09/22 05:15:41;;;;;;;;;1.00;1.00;;;;;18.64;100.00;99276.34;4904590;29;45491;-73
2023/09/22 05:18:12;;;;;;;;;1.33;1.00;;;;;18.67;100.00;99279.78;4904141;29;47268;-73
2023/09/22 05:20:37;;;;;;;;;2.00;2.00;;;;;18.75;100.00;99287.53;4903936;29;45387;-73
2023/09/22 05:23:03;;;;;;;;;2.67;2.67;;;;;18.74;100.00;99277.69;4889323;29;44833;-73
2023/09/22 05:25:29;;;;;;;;;0.25;0.25;;;;;18.71;100.00;99275.16;4904829;29;44862;-73
2023/09/22 05:27:54;;;;;;;;;1.00;1.00;;;;;18.75;100.00;99276.75;4905163;29;47331;-73
2023/09/22 05:30:26;;;;;;;;;1.00;1.00;;;;;19.14;100.00;99279.53;4905850;29;44748;-72
2023/09/22 05:32:51;;;;;;;;;1.67;1.33;;;;;18.73;100.00;99275.94;4891774;29;44865;-72
2023/09/22 05:35:16;;;;;;;;;2.00;2.00;;;;;18.87;100.00;99278.97;4891703;29;44808;-74
2023/09/22 05:37:42;;;;;;;;;1.00;1.00;;;;;18.97;100.00;99276.75;4891447;29;45191;-73
2023/09/22 05:40:12;;;;;;;;;0.00;0.00;;;;;19.04;100.00;99271.94;4904273;29;44986;-73
2023/09/22 05:42:39;;;;;;;;;2.00;2.00;;;;;18.99;100.00;99275.72;4890240;29;45408;-73
2023/09/22 05:45:05;;;;;;;;;2.00;1.00;;;;;19.02;100.00;99272.00;4888973;29;44953;-73
2023/09/22 05:47:31;;;;;;;;;2.00;2.00;;;;;18.98;100.00;99267.69;4889157;29;45380;-74
2023/09/22 05:49:56;;;;;;;;;1.25;1.25;;;;;18.98;100.00;99256.94;4888016;29;44806;-73
2023/09/22 05:52:21;;;;;;;;;4.00;2.00;;;;;19.07;100.00;99259.22;4889495;29;45053;-73
2023/09/22 05:54:50;;;;;;;;;1.00;1.00;;;;;19.04;100.00;99262.03;4904562;29;44833;-73
2023/09/22 05:57:16;;;;;;;;;1.00;1.00;;;;;19.06;100.00;99256.59;4904912;29;46705;-73
2023/09/22 05:59:41;;;;;;;;;1.00;1.00;;;;;19.05;100.00;99257.56;4903740;29;44771;-74
2023/09/22 06:02:07;;;;;;;;;2.00;2.00;;;;;19.11;100.00;99262.66;4886784;29;45200;-73
2023/09/22 06:04:32;;;;;;;;;1.50;1.00;;;;;19.19;100.00;99271.28;4901965;29;45396;-72
2023/09/22 06:06:58;;;;;;;;;4.67;3.00;;;;;19.25;100.00;99273.69;4888267;29;45509;-72
2023/09/22 06:09:24;;;;;;;;;1.75;1.00;;;;;19.33;100.00;99273.31;4902935;29;45410;-73
2023/09/22 06:11:49;;;;;;;;;2.75;2.00;;;;;19.34;100.00;99265.19;4887381;29;45386;-73
2023/09/22 06:14:15;;;;;;;;;2.00;2.00;;;;;19.38;100.00;99256.00;4885946;29;44940;-72
2023/09/22 06:16:48;;;;;;;;;0.00;0.00;;;;;20.02;100.00;99263.84;4886121;29;45193;-73
2023/09/22 06:19:14;;;;;;;;;1.00;1.00;;;;;19.38;100.00;99277.56;4901118;29;44820;-73
2023/09/22 06:21:40;;;;;;;;;0.00;0.00;;;;;19.36;100.00;99279.47;4886569;29;44814;-73
2023/09/22 06:24:07;;;;;;;;;2.00;2.00;;;;;19.54;100.00;99272.34;4886681;29;45446;-74
2023/09/22 06:26:32;;;;;;;;;1.00;1.00;;;;;19.41;100.00;99275.69;4900039;29;47652;-72
2023/09/22 06:29:00;;;;;;;;;1.25;1.25;;;;;19.45;100.00;99274.59;4899600;29;45477;-73
2023/09/22 06:31:26;;;;;;;;;3.00;2.00;;;;;19.39;100.00;99278.47;4884651;29;44728;-73
2023/09/22 06:33:51;;;;;;;;;1.25;1.25;;;;;19.47;100.00;99284.38;4885789;29;45398;-72
2023/09/22 06:36:17;;;;;;;;;2.00;2.00;;;;;19.41;100.00;99276.56;4884620;29;44999;-72
2023/09/22 06:38:42;;;;;;;;;1.00;1.00;;;;;19.37;100.00;99281.22;4885662;29;44873;-73
2023/09/22 06:41:16;;;;;;;;;1.00;1.00;;;;;19.63;100.00;99281.81;4885173;29;45183;-73
2023/09/22 06:43:42;;;;;;;;;1.50;1.50;;;;;19.37;100.00;99285.75;4887332;29;44765;-73
2023/09/22 06:46:09;;;;;;;;;1.25;1.25;;;;;19.34;100.00;99281.34;4886427;29;45106;-72
2023/09/22 06:48:36;;;;;;;;;1.00;0.50;;;;;19.31;100.00;99276.13;4887074;29;46137;-74
2023/09/22 06:51:01;;;;;;;;;2.00;1.00;;;;;19.38;100.00;99274.00;4902060;29;44830;-73
2023/09/22 06:53:29;;;;;;;;;1.00;1.00;;;;;19.46;100.00;99273.66;4885963;29;44811;-73
2023/09/22 06:56:09;;;;;;;;;2.25;2.25;;;;;19.77;100.00;99283.91;4886558;29;45398;-74
2023/09/22 06:58:40;;;;;;;;;1.50;1.00;;;;;19.88;100.00;99280.72;4900365;29;44902;-74
2023/09/22 07:01:16;;;;;;;;;2.00;2.00;;;;;19.95;100.00;99266.84;4900398;29;44932;-74
2023/09/22 07:03:46;;;;;;;;;2.00;2.00;;;;;19.92;100.00;99276.94;4885772;29;44833;-72
2023/09/22 07:06:14;;;;;;;;;1.00;1.00;;;;;19.81;100.00;99276.56;4885695;29;45375;-73
2023/09/22 07:08:41;;;;;;;;;3.00;0.00;;;;;19.68;100.00;99285.19;4887891;29;44887;-73
2023/09/22 07:11:08;;;;;;;;;0.00;0.00;;;;;20.00;100.00;99282.84;4901207;29;45502;-75
2023/09/22 07:13:40;;;;;;;;;2.00;2.00;;;;;20.35;100.00;99285.63;4911084;28;45428;-77
2023/09/22 07:16:12;;;;;;;;;0.00;0.00;;;;;20.13;100.00;99283.97;4894510;29;45491;-75
2023/09/22 07:18:39;;;;;;;;;4.00;1.00;;;;;20.18;100.00;99276.53;4895806;29;45435;-75
2023/09/22 07:21:08;;;;;;;;;0.75;0.75;;;;;20.38;100.00;99283.66;4881788;29;45395;-75
2023/09/22 07:23:33;;;;;;;;;1.25;1.25;;;;;20.10;100.00;99276.03;4908117;28;45600;-75
2023/09/22 07:26:08;;;;;;;;;1.67;1.00;;;;;20.41;100.00;99274.53;4894697;29;45147;-74
2023/09/22 07:28:46;;;;;;;;;3.00;1.75;;;;;19.93;100.00;99278.66;4906731;28;44724;-81
2023/09/22 07:31:32;;;;;;;;;1.25;1.25;;;;;19.88;100.00;99275.34;4918898;29;44994;-81
2023/09/22 07:34:07;;;;;;;;;0.00;0.00;;;;;19.87;100.00;99271.75;5296308;23;46006;-81
2023/09/22 07:36:34;;;;;;;;;1.00;1.00;;;;;19.77;100.00;99262.34;4901557;28;45446;-81
2023/09/22 07:38:59;;;;;;;;;1.00;0.75;;;;;19.61;100.00;99235.19;4899496;28;45228;-82
2023/09/22 07:41:31;;;;;;;;;3.50;1.50;;;;;20.05;100.00;99245.69;4878412;29;44849;-81
2023/09/22 07:44:35;;;;;;;;;0.50;0.00;;;;;20.29;100.00;99258.94;4884546;29;45371;-83
2023/09/22 07:47:10;;;;;;;;;2.00;1.00;;;;;19.82;100.00;99257.59;4881363;29;45674;-83
2023/09/22 07:49:44;;;;;;;;;1.50;1.50;;;;;20.12;100.00;99263.34;4878182;29;44818;-83
2023/09/22 07:52:13;;;;;;;;;1.50;0.00;;;;;19.80;100.00;99261.34;4877974;29;45680;-82
2023/09/22 07:54:39;;;;;;;;;1.00;1.00;;;;;19.72;100.00;99254.47;4874359;29;45553;-84
2023/09/22 07:57:05;;;;;;;;;2.00;2.00;;;;;19.62;100.00;99253.13;4888127;29;46358;-84
2023/09/22 07:59:31;;;;;;;;;2.75;1.00;;;;;19.67;100.00;99266.38;4875502;29;44920;-80
2023/09/22 08:02:02;;;;;;;;;2.50;1.75;;;;;19.85;100.00;99264.69;4889874;29;44807;-79
2023/09/22 08:04:29;;;;;;;;;1.25;0.00;;;;;19.65;100.00;99263.75;4894940;29;45358;-79
2023/09/22 08:06:55;;;;;;;;;1.00;1.00;;;;;19.80;100.00;99269.44;4887753;29;47342;-80
2023/09/22 08:09:21;;;;;;;;;1.00;1.00;;;;;19.85;100.00;99257.44;4891915;29;44824;-79
2023/09/22 08:11:47;;;;;;;;;1.00;1.00;;;;;19.95;100.00;99265.97;4906875;29;45006;-78
2023/09/22 08:14:12;;;;;;;;;0.25;0.00;;;;;20.04;100.00;99280.88;4895475;29;44971;-80
2023/09/22 08:16:38;;;;;;;;;0.50;0.50;;;;;20.16;100.00;99273.03;4882640;29;46910;-79
2023/09/22 08:19:10;;;;;;;;;0.25;0.25;;;;;20.22;100.00;99279.97;4895871;29;44892;-79
2023/09/22 08:21:39;;;;;;;;;0.50;0.50;;;;;20.10;100.00;99276.03;4902341;28;44827;-81
2023/09/22 08:24:08;;;;;;;;;1.25;1.00;;;;;20.03;100.00;99273.72;4916012;28;44935;-82
2023/09/22 08:29:15;;;;;;;;;0.25;0.25;;;;;20.18;100.00;99272.97;5225098;23;46394;-81
2023/09/22 08:31:41;;;;;;;;;0.00;0.00;;;;;19.78;100.00;99281.16;4895187;29;45444;-82
2023/09/22 08:34:07;;;;;;;;;0.00;0.00;;;;;19.72;100.00;99281.44;4906888;29;44859;-82
2023/09/22 08:36:33;;;;;;;;;0.00;0.00;;;;;19.76;100.00;99280.34;4891648;29;46613;-82
2023/09/22 08:38:59;;;;;;;;;0.00;0.00;;;;;19.91;100.00;99275.16;4907504;28;44907;-83
2023/09/22 08:41:26;;;;;;;;;1.00;1.00;;;;;19.67;100.00;99272.66;4902798;29;45456;-83
2023/09/22 08:43:57;;;;;;;;;1.00;1.00;;;;;19.92;100.00;99276.94;4904890;29;45384;-82
2023/09/22 08:46:23;;;;;;;;;0.75;0.75;;;;;19.59;100.00;99281.13;4898294;29;47189;-82
2023/09/22 08:48:54;;;;;;;;;0.00;0.00;;;;;19.96;100.00;99279.41;4895417;29;45055;-85
2023/09/22 08:51:21;;;;;;;;;0.00;0.00;;;;;19.87;100.00;99273.56;4903005;29;45611;-86
2023/09/22 08:53:47;;;;;;;;;0.25;0.25;;;;;19.84;100.00;99273.72;4906935;28;45684;-87
2023/09/22 08:56:14;;;;;;;;;1.00;1.00;;;;;19.86;100.00;99263.75;4904508;29;48310;-86
2023/09/22 08:58:47;;;;;;;;;3.00;2.00;;;;;20.05;100.00;99283.47;4899536;29;45488;-88
2023/09/22 09:01:15;;;;;;;;;2.00;1.00;;;;;20.24;100.00;99275.38;4909513;29;45174;-86
2023/09/22 09:03:42;;;;;;;;;0.00;0.00;;;;;20.55;100.00;99272.00;4903244;29;44965;-83
2023/09/22 09:06:09;;;;;;;;;0.00;0.00;;;;;20.60;100.00;99282.59;4889514;29;47741;-83
2023/09/22 09:08:38;;;;;;;;;0.67;0.67;;;;;20.70;100.00;99274.91;4912886;29;45417;-82
2023/09/22 09:11:10;;;;;;;;;3.00;3.00;;;;;21.22;100.00;99285.72;4902050;29;44819;-79
2023/09/22 09:13:39;;;;;;;;;0.00;0.00;;;;;21.24;100.00;99275.69;4880007;29;45374;-82
2023/09/22 09:16:21;;;;;;;;;0.00;0.00;;;;;21.20;100.00;99284.91;4902498;29;47184;-81
2023/09/22 09:18:46;;;;;;;;;0.75;0.75;;;;;21.14;100.00;99280.69;4893436;29;45229;-82
2023/09/22 09:21:16;;;;;;;;;0.00;0.00;;;;;21.43;100.00;99290.94;4891777;29;44738;-83
2023/09/22 09:23:57;;;;;;;;;0.75;0.00;;;;;21.99;100.00;99300.50;4894332;29;44952;-80
2023/09/22 09:26:24;;;;;;;;;0.25;0.25;;;;;21.89;100.00;99305.53;4892670;29;45011;-78
2023/09/22 09:28:57;;;;;;;;;0.50;0.00;;;;;21.97;100.00;99314.09;4904759;29;45530;-78
2023/09/22 09:31:46;;;;;;;;;0.00;0.00;;;;;22.47;100.00;99317.66;4891716;29;44880;-78
2023/09/22 09:34:16;;;;;;;;;0.00;0.00;;;;;22.40;100.00;99316.28;4885983;29;44976;-82
2023/09/22 09:42:40;;;;;;;;;0.00;0.00;;;;;22.27;100.00;99324.22;4920583;29;44693;-84
2023/09/22 09:45:11;;;;;;;;;0.00;0.00;;;;;21.93;100.00;99307.13;4899235;29;44888;-78
2023/09/22 09:48:00;;;;;;;;;0.00;0.00;;;;;22.37;100.00;99327.28;4895415;29;46799;-79
2023/09/22 09:50:35;;;;;;;;;0.00;0.00;;;;;22.39;100.00;99319.94;4902208;28;44837;-79
2023/09/22 09:53:09;;;;;;;;;0.00;0.00;;;;;22.56;100.00;99316.22;4885863;28;45301;-80
2023/09/22 09:55:56;;;;;;;;;0.50;0.50;;;;;22.59;100.00;99304.38;4918658;28;45023;-78
2023/09/22 09:58:25;;;;;;;;;0.25;0.00;;;;;22.47;100.00;99319.50;4931529;28;46819;-80
2023/09/22 10:01:34;;;;;;;;;0.00;0.00;;;;;22.89;100.00;99345.06;4931612;28;44777;-80
2023/09/22 10:04:10;;;;;;;;;0.00;0.00;;;;;22.13;98.68;99352.03;4933045;28;45542;-78
2023/09/22 10:07:01;;;;;;;;;0.00;0.00;;;;;21.68;100.00;99345.50;4908982;29;45076;-80
2023/09/22 10:10:14;;;;;;;;;0.00;0.00;;;;;22.03;100.00;99399.53;4892310;29;46773;-79
2023/09/22 10:16:08;;;;;;;;;0.50;0.00;;;;;21.64;100.00;99391.75;4838848;29;44796;-80
2023/09/22 10:18:45;;;;;;;;;1.00;1.00;;;;;21.68;100.00;99405.03;4835681;29;45523;-80
2023/09/22 10:21:51;;;;;;;;;0.00;0.00;;;;;21.70;100.00;99408.53;4826566;29;45269;-79
2023/09/22 10:24:38;;;;;;;;;0.00;0.00;;;;;21.64;100.00;99422.38;4820282;29;45409;-80
2023/09/22 10:27:13;;;;;;;;;0.00;0.00;;;;;21.34;100.00;99401.34;4811987;29;44809;-80
2023/09/22 10:30:22;;;;;;;;;0.00;0.00;;;;;21.06;95.45;99388.34;4821108;29;44918;-79
2023/09/22 10:32:48;;;;;;;;;0.00;0.00;;;;;20.90;96.88;99417.13;4801849;29;46906;-81
2023/09/22 10:35:46;;;;;;;;;0.00;0.00;;;;;21.28;100.00;99433.25;4783896;29;44751;-78
2023/09/22 10:38:22;;;;;;;;;0.00;0.00;;;;;21.33;100.00;99440.16;4806429;29;44895;-81
2023/09/22 10:41:05;;;;;;;;;0.00;0.00;;;;;21.21;93.20;99457.03;4823547;29;44785;-79
2023/09/22 10:43:54;;;;;;;;;0.00;0.00;;;;;20.88;100.00;99457.72;4826253;29;45067;-79
2023/09/22 10:46:19;;;;;;;;;0.00;0.00;;;;;21.05;100.00;99464.16;4806820;29;45521;-79
2023/09/22 10:48:51;;;;;;;;;0.00;0.00;;;;;21.40;100.00;99437.16;4819489;29;44803;-79
2023/09/22 10:54:56;;;;;;;;;24.00;22.67;;;;;21.82;100.00;99466.53;4759078;29;45789;-74
2023/09/22 10:57:23;;;;;;;;;1.00;1.00;;;;;22.44;100.00;99466.84;4755572;29;45500;-76
2023/09/22 10:59:49;;;;;;;;;5.00;4.25;;;;;22.74;100.00;99469.69;4758470;29;44991;-77
2023/09/22 11:02:25;;;;;;;;;6.67;6.00;;;;;23.55;100.00;99479.47;4746700;29;45518;-75
2023/09/22 11:04:50;;;;;;;;;11.00;9.33;;;;;23.53;100.00;99467.84;4739978;29;47269;-74
2023/09/22 11:07:35;;;;;;;;;11.33;11.33;;;;;24.23;100.00;99478.09;4749474;29;45509;-73
2023/09/22 11:10:08;;;;;;;;;2.00;0.25;;;;;24.25;100.00;99479.75;4785843;29;45536;-74
2023/09/22 11:12:33;;;;;;;;;0.50;0.00;;;;;23.80;100.00;99489.78;4774826;29;45472;-72
2023/09/22 11:15:02;;;;;;;;;6.00;6.00;;;;;23.84;100.00;99501.34;4775137;29;46700;-74
2023/09/22 11:17:47;;;;;;;;;2.25;2.25;;;;;23.82;95.66;99500.56;4800393;29;45752;-72
2023/09/22 11:20:28;;;;;;;;;0.50;0.50;;;;;23.92;100.00;99518.03;4763750;29;45435;-73
2023/09/22 11:22:55;;;;;;;;;3.25;1.50;;;;;23.74;100.00;99517.28;4758393;29;45549;-72
2023/09/22 11:25:23;;;;;;;;;3.33;3.33;;;;;23.93;100.00;99523.34;4795099;29;45556;-72
2023/09/22 11:27:50;;;;;;;;;2.75;1.50;;;;;23.91;91.58;99535.28;4816407;29;44937;-74
2023/09/22 11:30:19;;;;;;;;;2.00;2.00;;;;;23.73;96.66;99538.13;4798484;29;45451;-73
2023/09/22 11:32:46;;;;;;;;;1.00;1.00;;;;;23.74;97.58;99549.84;4840383;29;45425;-74
2023/09/22 11:35:41;;;;;;;;;0.00;0.00;;;;;24.03;100.00;99545.41;4872446;29;45694;-74
2023/09/22 11:38:25;;;;;;;;;0.00;0.00;;;;;24.01;100.00;99547.34;4888592;28;45349;-74
2023/09/22 11:41:16;;;;;;;;;0.00;0.00;;;;;23.79;100.00;99557.75;4885860;29;45539;-74
2023/09/22 11:43:49;;;;;;;;;0.00;0.00;;;;;23.49;85.51;99566.69;4903501;29;45539;-73
2023/09/22 11:46:15;;;;;;;;;0.00;0.00;;;;;22.81;94.10;99570.50;4902501;29;45906;-72
2023/09/22 11:48:54;;;;;;;;;0.00;0.00;;;;;22.94;95.13;99576.97;4882802;29;44823;-72